createdAt,value
2023-04-29T00:01:14.139Z,83.58
2023-04-29T00:03:41.055Z,83.30
2023-04-29T00:06:08.138Z,83.26
2023-04-29T00:08:35.047Z,83.06
2023-04-29T00:11:01.816Z,83.14
2023-04-29T00:13:28.486Z,83.13
2023-04-29T00:15:55.217Z,82.97
2023-04-29T00:18:21.892Z,83.17
2023-04-29T00:20:48.560Z,83.29
2023-04-29T00:23:15.223Z,83.15
2023-04-29T00:25:41.893Z,83.17
2023-04-29T00:28:08.667Z,83.15
2023-04-29T00:30:35.628Z,83.34
2023-04-29T00:33:02.532Z,83.29
2023-04-29T00:35:29.580Z,83.51
2023-04-29T00:37:56.270Z,83.46
2023-04-29T00:40:23.061Z,83.29
2023-04-29T00:42:49.770Z,83.18
2023-04-29T00:45:16.643Z,83.50
2023-04-29T00:47:44.157Z,83.31
2023-04-29T00:50:11.013Z,83.49
2023-04-29T00:52:39.161Z,83.48
2023-04-29T00:55:09.143Z,83.61
2023-04-29T00:57:35.901Z,83.68
2023-04-29T01:00:03.052Z,83.46
2023-04-29T01:02:30.286Z,83.71
2023-04-29T01:04:57.493Z,83.37
2023-04-29T01:07:40.744Z,83.47
2023-04-29T01:10:11.231Z,83.26
2023-04-29T01:12:43.827Z,83.38
2023-04-29T01:15:17.224Z,83.23
2023-04-29T01:18:00.989Z,83.30
2023-04-29T01:20:28.291Z,83.20
2023-04-29T01:22:54.991Z,83.39
2023-04-29T01:28:37.240Z,83.05
2023-04-29T01:31:18.910Z,82.82
2023-04-29T01:33:52.648Z,82.80
2023-04-29T01:36:48.085Z,82.97
2023-04-29T01:39:19.522Z,83.04
2023-04-29T01:41:59.998Z,82.98
2023-04-29T01:44:30.474Z,83.03
2023-04-29T01:46:57.704Z,82.93
2023-04-29T01:49:36.071Z,82.96
2023-04-29T01:52:03.637Z,82.96
2023-04-29T01:54:30.964Z,82.72
2023-04-29T01:56:58.864Z,82.96
2023-04-29T01:59:31.705Z,82.77
2023-04-29T02:02:07.710Z,82.97
2023-04-29T02:04:37.852Z,83.00
2023-04-29T02:07:04.706Z,82.88
2023-04-29T02:09:31.776Z,82.84
2023-04-29T02:12:06.585Z,82.53
2023-04-29T02:14:36.264Z,82.67
2023-04-29T02:17:04.542Z,82.71
2023-04-29T02:19:31.379Z,82.61
2023-04-29T02:21:58.133Z,82.89
2023-04-29T02:24:25.954Z,82.96
2023-04-29T02:26:53.215Z,82.94
2023-04-29T02:29:19.949Z,82.78
2023-04-29T02:31:46.854Z,82.94
2023-04-29T02:34:13.580Z,82.54
2023-04-29T02:36:40.312Z,82.84
2023-04-29T02:39:07.327Z,82.81
2023-04-29T02:41:34.681Z,82.78
2023-04-29T02:44:01.537Z,82.65
2023-04-29T02:46:28.290Z,82.58
2023-04-29T02:48:55.610Z,82.64
2023-04-29T02:51:22.416Z,82.90
2023-04-29T02:53:49.772Z,82.87
2023-04-29T02:56:16.534Z,82.35
2023-04-29T02:58:43.300Z,82.57
2023-04-29T03:01:10.076Z,82.67
2023-04-29T03:03:37.004Z,82.73
2023-04-29T03:06:04.034Z,82.54
2023-04-29T03:08:30.731Z,83.04
2023-04-29T03:10:57.448Z,82.92
2023-04-29T03:13:24.411Z,82.85
2023-04-29T03:15:51.140Z,82.78
2023-04-29T03:18:17.962Z,82.71
2023-04-29T03:20:44.709Z,82.76
2023-04-29T03:23:11.399Z,82.60
2023-04-29T03:25:38.132Z,82.81
2023-04-29T03:28:04.922Z,82.58
2023-04-29T03:30:32.411Z,82.60
2023-04-29T03:32:59.549Z,82.57
2023-04-29T03:35:28.007Z,82.77
2023-04-29T03:38:13.222Z,82.83
2023-04-29T03:40:40.275Z,82.59
2023-04-29T03:43:09.379Z,82.93
2023-04-29T03:45:36.207Z,83.03
2023-04-29T03:48:03.867Z,82.55
2023-04-29T03:50:31.113Z,82.49
2023-04-29T03:52:58.070Z,82.58
2023-04-29T03:55:24.792Z,82.86
2023-04-29T03:57:51.715Z,82.74
2023-04-29T04:00:19.506Z,82.43
2023-04-29T04:02:52.337Z,82.39
2023-04-29T04:05:21.630Z,82.24
2023-04-29T04:07:53.581Z,82.35
2023-04-29T04:10:42.628Z,82.14
2023-04-29T04:13:20.716Z,82.35
2023-04-29T04:15:51.721Z,82.11
2023-04-29T04:18:18.530Z,82.30
2023-04-29T04:20:45.274Z,82.35
2023-04-29T04:23:12.121Z,82.26
2023-04-29T04:25:39.002Z,82.24
2023-04-29T04:28:28.255Z,82.36
2023-04-29T04:31:02.552Z,82.73
2023-04-29T04:33:29.471Z,83.26
2023-04-29T04:35:56.408Z,83.53
2023-04-29T04:38:25.572Z,83.09
2023-04-29T04:40:52.736Z,83.49
2023-04-29T04:43:27.154Z,84.37
2023-04-29T04:45:54.026Z,84.58
2023-04-29T04:48:20.823Z,84.40
2023-04-29T04:50:53.361Z,83.72
2023-04-29T04:53:20.164Z,83.28
2023-04-29T04:56:01.357Z,83.11
2023-04-29T04:58:29.241Z,83.19
2023-04-29T05:00:56.025Z,83.05
2023-04-29T05:03:23.264Z,83.10
2023-04-29T05:05:57.457Z,83.18
2023-04-29T05:08:25.051Z,83.17
2023-04-29T05:10:54.311Z,83.47
2023-04-29T05:13:21.555Z,83.49
2023-04-29T05:15:48.722Z,83.51
2023-04-29T05:18:20.934Z,83.29
2023-04-29T05:20:50.403Z,83.35
2023-04-29T05:23:17.299Z,83.41
2023-04-29T05:25:45.979Z,83.56
2023-04-29T05:28:13.002Z,83.78
2023-04-29T05:30:41.874Z,83.62
2023-04-29T05:33:08.742Z,84.02
2023-04-29T05:35:35.624Z,84.30
2023-04-29T05:38:02.432Z,84.23
2023-04-29T05:40:41.069Z,84.64
2023-04-29T05:43:31.245Z,85.40
2023-04-29T05:45:58.249Z,85.11
2023-04-29T05:48:25.362Z,85.54
2023-04-29T05:50:52.468Z,85.06
2023-04-29T05:53:22.278Z,85.13
2023-04-29T05:55:51.526Z,84.73
2023-04-29T05:58:21.993Z,84.62
2023-04-29T06:00:50.171Z,84.83
2023-04-29T06:03:21.778Z,84.91
2023-04-29T06:05:54.528Z,84.88
2023-04-29T06:08:44.251Z,84.94
2023-04-29T06:11:16.062Z,85.25
2023-04-29T06:13:42.959Z,85.11
2023-04-29T06:16:10.833Z,85.33
2023-04-29T06:18:38.695Z,84.68
2023-04-29T06:21:05.739Z,84.59
2023-04-29T06:23:33.006Z,84.67
2023-04-29T06:26:03.412Z,84.77
2023-04-29T06:28:30.233Z,84.75
2023-04-29T06:30:57.158Z,84.68
2023-04-29T06:33:24.306Z,84.49
2023-04-29T06:35:51.061Z,84.53
2023-04-29T06:38:36.522Z,84.03
2023-04-29T06:41:25.788Z,83.96
2023-04-29T06:44:06.254Z,84.26
2023-04-29T06:46:51.074Z,84.40
2023-04-29T06:49:27.839Z,84.60
2023-04-29T06:51:54.738Z,84.57
2023-04-29T06:54:21.769Z,84.06
2023-04-29T06:56:50.413Z,84.12
2023-04-29T06:59:17.915Z,84.02
2023-04-29T07:01:45.338Z,83.63
2023-04-29T07:04:13.443Z,83.38
2023-04-29T07:06:40.633Z,83.70
2023-04-29T07:09:07.638Z,84.06
2023-04-29T07:11:36.972Z,83.82
2023-04-29T07:14:03.701Z,83.20
2023-04-29T07:16:30.496Z,82.51
2023-04-29T07:18:57.253Z,82.88
2023-04-29T07:21:24.061Z,83.07
2023-04-29T07:23:50.869Z,82.91
2023-04-29T07:26:18.459Z,82.71
2023-04-29T07:28:46.041Z,82.36
2023-04-29T07:31:12.893Z,82.60
2023-04-29T07:33:40.048Z,82.55
2023-04-29T07:36:07.734Z,81.82
2023-04-29T07:38:35.032Z,81.39
2023-04-29T07:41:01.816Z,80.57
2023-04-29T07:43:29.147Z,80.51
2023-04-29T07:45:56.213Z,80.89
2023-04-29T07:48:23.150Z,80.63
2023-04-29T07:50:50.208Z,81.21
2023-04-29T07:53:18.329Z,80.11
2023-04-29T07:55:45.122Z,79.87
2023-04-29T07:58:12.070Z,79.73
2023-04-29T08:00:39.184Z,79.13
2023-04-29T08:03:06.555Z,79.17
2023-04-29T08:05:33.962Z,79.37
2023-04-29T08:08:04.427Z,80.11
2023-04-29T08:10:32.277Z,79.73
2023-04-29T08:12:59.289Z,79.26
2023-04-29T08:15:26.082Z,79.75
2023-04-29T08:17:53.213Z,79.02
2023-04-29T08:20:20.554Z,79.31
2023-04-29T08:22:49.823Z,78.80
2023-04-29T08:25:17.194Z,78.63
2023-04-29T08:27:45.996Z,78.36
2023-04-29T08:30:13.005Z,77.84
2023-04-29T08:32:42.236Z,77.56
2023-04-29T08:35:09.485Z,78.90
2023-04-29T08:37:39.608Z,77.89
2023-04-29T08:40:08.126Z,77.20
2023-04-29T08:42:36.773Z,77.35
2023-04-29T08:45:07.522Z,76.33
2023-04-29T08:47:38.882Z,76.83
2023-04-29T08:50:09.681Z,75.17
2023-04-29T08:52:36.585Z,76.17
2023-04-29T08:55:03.612Z,74.89
2023-04-29T08:57:43.675Z,75.18
2023-04-29T09:00:20.466Z,74.63
2023-04-29T09:02:52.421Z,74.53
2023-04-29T09:05:22.439Z,74.11
2023-04-29T09:07:51.216Z,73.83
2023-04-29T09:10:18.678Z,74.38
2023-04-29T09:12:46.466Z,73.88
2023-04-29T09:15:13.317Z,76.85
2023-04-29T09:17:40.145Z,75.22
2023-04-29T09:20:26.540Z,74.76
2023-04-29T09:22:58.951Z,72.81
2023-04-29T09:25:30.797Z,73.15
2023-04-29T09:27:58.102Z,73.39
2023-04-29T09:30:27.004Z,74.01
2023-04-29T09:33:20.248Z,74.49
2023-04-29T09:35:48.028Z,74.35
2023-04-29T09:38:16.340Z,73.55
2023-04-29T09:40:58.168Z,73.08
2023-04-29T09:43:26.474Z,71.83
2023-04-29T09:45:53.410Z,73.17
2023-04-29T09:48:20.429Z,72.17
2023-04-29T09:51:01.694Z,71.25
2023-04-29T09:53:30.333Z,71.18
2023-04-29T09:56:03.887Z,71.48
2023-04-29T09:58:37.300Z,71.69
2023-04-29T10:01:05.281Z,72.49
2023-04-29T10:03:36.544Z,71.89
2023-04-29T10:06:05.043Z,70.13
2023-04-29T10:08:32.578Z,70.40
2023-04-29T10:11:01.112Z,69.63
2023-04-29T10:13:28.748Z,70.14
2023-04-29T10:16:09.431Z,69.98
2023-04-29T10:18:37.956Z,70.48
2023-04-29T10:21:08.596Z,68.62
2023-04-29T10:23:36.658Z,67.70
2023-04-29T10:26:07.026Z,69.86
2023-04-29T10:28:36.034Z,68.15
2023-04-29T10:31:04.598Z,69.52
2023-04-29T10:33:32.883Z,69.76
2023-04-29T10:36:01.209Z,69.65
2023-04-29T10:38:40.395Z,68.43
2023-04-29T10:41:24.901Z,69.67
2023-04-29T10:43:52.867Z,69.12
2023-04-29T10:46:21.803Z,69.72
2023-04-29T10:48:50.405Z,69.27
2023-04-29T10:51:41.000Z,68.42
2023-04-29T10:54:16.070Z,68.19
2023-04-29T10:56:58.533Z,66.33
2023-04-29T10:59:28.123Z,67.47
2023-04-29T11:01:55.046Z,66.71
2023-04-29T11:04:22.964Z,67.55
2023-04-29T11:06:54.109Z,65.38
2023-04-29T11:09:28.692Z,68.00
2023-04-29T11:11:55.340Z,67.84
2023-04-29T11:14:25.316Z,63.42
2023-04-29T11:16:54.662Z,63.45
2023-04-29T11:19:24.485Z,62.63
2023-04-29T11:22:04.692Z,61.84
2023-04-29T11:24:31.623Z,63.16
2023-04-29T11:27:04.423Z,62.41
2023-04-29T11:29:32.793Z,65.03
2023-04-29T11:32:01.661Z,64.73
2023-04-29T11:34:28.642Z,66.45
2023-04-29T11:36:55.418Z,66.66
2023-04-29T11:39:22.174Z,64.92
2023-04-29T11:41:51.951Z,62.86
2023-04-29T11:44:23.638Z,63.45
2023-04-29T11:46:50.472Z,63.83
2023-04-29T11:49:17.198Z,64.10
2023-04-29T11:51:43.982Z,65.47
2023-04-29T11:54:10.728Z,62.14
2023-04-29T11:56:38.400Z,64.51
2023-04-29T11:59:08.293Z,62.75
2023-04-29T12:01:36.236Z,62.25
2023-04-29T12:04:04.127Z,60.24
2023-04-29T12:06:31.898Z,62.77
2023-04-29T12:09:04.667Z,62.30
2023-04-29T12:11:31.392Z,59.81
2023-04-29T12:13:58.524Z,60.56
2023-04-29T12:16:26.014Z,62.06
2023-04-29T12:18:53.195Z,62.23
2023-04-29T12:21:19.928Z,64.29
2023-04-29T12:23:46.859Z,61.05
2023-04-29T12:26:14.554Z,59.51
2023-04-29T12:28:43.724Z,58.92
2023-04-29T12:31:13.653Z,60.44
2023-04-29T12:33:43.368Z,57.44
2023-04-29T12:36:18.564Z,58.62
2023-04-29T12:38:45.929Z,58.54
2023-04-29T12:41:14.640Z,57.76
2023-04-29T12:43:41.615Z,59.18
2023-04-29T12:46:10.095Z,57.38
2023-04-29T12:48:38.901Z,57.91
2023-04-29T12:51:06.034Z,58.83
2023-04-29T12:53:32.892Z,56.19
2023-04-29T12:55:59.925Z,56.39
2023-04-29T12:58:30.709Z,57.95
2023-04-29T13:00:58.155Z,58.35
2023-04-29T13:03:25.515Z,58.87
2023-04-29T13:05:54.999Z,58.82
2023-04-29T13:08:22.260Z,58.16
2023-04-29T13:10:49.858Z,56.29
2023-04-29T13:13:16.910Z,55.88
2023-04-29T13:15:43.776Z,54.00
2023-04-29T13:18:12.168Z,54.01
2023-04-29T13:20:41.918Z,52.41
2023-04-29T13:23:09.926Z,53.07
2023-04-29T13:25:36.790Z,56.15
2023-04-29T13:28:05.586Z,55.04
2023-04-29T13:30:33.509Z,54.33
2023-04-29T13:33:07.955Z,55.44
2023-04-29T13:35:40.521Z,54.87
2023-04-29T13:38:08.269Z,52.41
2023-04-29T13:40:39.330Z,49.67
2023-04-29T13:43:09.784Z,49.44
2023-04-29T13:45:39.995Z,50.15
2023-04-29T13:48:26.091Z,49.93
2023-04-29T13:53:56.790Z,52.12
2023-04-29T13:59:30.730Z,55.88
2023-04-29T14:04:02.372Z,54.74
2023-04-29T14:06:30.683Z,54.50
2023-04-29T14:08:57.457Z,55.42
2023-04-29T14:11:24.291Z,55.30
2023-04-29T14:13:50.990Z,55.40
2023-04-29T14:16:17.708Z,54.27
2023-04-29T14:18:44.985Z,54.52
2023-04-29T14:21:11.970Z,56.05
2023-04-29T14:23:38.758Z,55.49
2023-04-29T14:26:22.984Z,56.87
2023-04-29T14:28:57.989Z,54.58
2023-04-29T14:31:25.863Z,55.11
2023-04-29T14:33:52.680Z,56.95
2023-04-29T14:36:29.719Z,55.84
2023-04-29T14:38:56.568Z,55.16
2023-04-29T14:41:23.317Z,55.13
2023-04-29T14:43:50.080Z,55.27
2023-04-29T14:46:17.143Z,55.90
2023-04-29T14:48:43.995Z,52.79
2023-04-29T14:51:10.978Z,54.06
2023-04-29T14:53:37.756Z,53.65
2023-04-29T14:56:04.981Z,54.71
2023-04-29T14:58:31.779Z,54.50
2023-04-29T15:00:58.616Z,54.49
2023-04-29T15:03:25.710Z,55.63
2023-04-29T15:05:52.755Z,53.68
2023-04-29T15:08:22.177Z,53.59
2023-04-29T15:10:50.518Z,54.87
2023-04-29T15:13:17.365Z,54.67
2023-04-29T15:15:44.269Z,55.75
2023-04-29T15:18:11.197Z,55.04
2023-04-29T15:20:38.288Z,55.21
2023-04-29T15:23:05.739Z,56.44
2023-04-29T15:25:34.821Z,56.98
2023-04-29T15:28:04.981Z,56.28
2023-04-29T15:30:32.519Z,57.64
2023-04-29T15:32:59.491Z,57.63
2023-04-29T15:35:26.271Z,58.94
2023-04-29T15:37:53.236Z,58.41
2023-04-29T15:40:20.359Z,58.99
2023-04-29T15:42:47.216Z,57.58
2023-04-29T15:45:14.203Z,59.20
2023-04-29T15:47:40.944Z,57.30
2023-04-29T15:50:09.664Z,58.74
2023-04-29T15:52:36.723Z,59.01
2023-04-29T15:55:03.743Z,59.77
2023-04-29T15:57:30.610Z,58.21
2023-04-29T15:59:57.435Z,59.58
2023-04-29T16:02:24.288Z,58.80
2023-04-29T16:04:51.053Z,59.09
2023-04-29T16:07:18.474Z,59.35
2023-04-29T16:09:46.228Z,60.56
2023-04-29T16:12:14.179Z,59.39
2023-04-29T16:14:41.034Z,59.84
2023-04-29T16:17:08.247Z,60.36
2023-04-29T16:19:36.614Z,59.78
2023-04-29T16:22:04.382Z,59.69
2023-04-29T16:24:31.134Z,60.35
2023-04-29T16:26:59.356Z,60.42
2023-04-29T16:29:26.369Z,61.26
2023-04-29T16:31:53.222Z,60.03
2023-04-29T16:34:20.346Z,61.58
2023-04-29T16:36:47.192Z,62.43
2023-04-29T16:39:14.116Z,61.22
2023-04-29T16:41:41.081Z,60.76
2023-04-29T16:44:08.856Z,62.27
2023-04-29T16:46:35.947Z,62.06
2023-04-29T16:49:03.232Z,62.35
2023-04-29T16:51:30.035Z,62.31
2023-04-29T16:53:56.880Z,61.98
2023-04-29T16:56:23.699Z,63.61
2023-04-29T16:58:50.418Z,62.47
2023-04-29T17:01:19.797Z,62.80
2023-04-29T17:03:47.820Z,62.42
2023-04-29T17:06:15.549Z,62.16
2023-04-29T17:08:43.211Z,63.04
2023-04-29T17:11:10.584Z,62.34
2023-04-29T17:13:37.290Z,62.37
2023-04-29T17:16:04.276Z,62.29
2023-04-29T17:18:31.334Z,62.23
2023-04-29T17:20:58.355Z,62.74
2023-04-29T17:23:25.069Z,63.53
2023-04-29T17:25:51.864Z,63.15
2023-04-29T17:28:18.583Z,63.05
2023-04-29T17:30:45.485Z,63.09
2023-04-29T17:33:14.194Z,63.60
2023-04-29T17:35:41.277Z,63.75
2023-04-29T17:38:08.116Z,62.74
2023-04-29T17:40:35.045Z,63.14
2023-04-29T17:43:01.767Z,63.53
2023-04-29T17:45:28.531Z,63.94
2023-04-29T17:47:55.634Z,64.18
2023-04-29T17:50:22.364Z,63.48
2023-04-29T17:52:49.086Z,64.20
2023-04-29T17:55:15.810Z,63.99
2023-04-29T17:57:42.820Z,63.37
2023-04-29T18:00:11.403Z,62.95
2023-04-29T18:02:38.272Z,63.98
2023-04-29T18:05:05.295Z,63.77
2023-04-29T18:07:32.032Z,64.65
2023-04-29T18:09:58.776Z,64.40
2023-04-29T18:12:25.764Z,64.60
2023-04-29T18:14:52.477Z,65.11
2023-04-29T18:17:19.618Z,65.16
2023-04-29T18:19:48.741Z,64.95
2023-04-29T18:22:16.083Z,65.60
2023-04-29T18:24:42.795Z,65.35
2023-04-29T18:27:09.601Z,65.40
2023-04-29T18:29:36.373Z,65.56
2023-04-29T18:32:04.401Z,65.66
2023-04-29T18:34:32.489Z,65.79
2023-04-29T18:36:59.272Z,65.74
2023-04-29T18:39:25.965Z,65.44
2023-04-29T18:41:53.991Z,65.53
2023-04-29T18:44:20.781Z,65.62
2023-04-29T18:46:47.919Z,65.37
2023-04-29T18:49:17.142Z,66.17
2023-04-29T18:51:46.963Z,65.26
2023-04-29T18:54:16.201Z,66.37
2023-04-29T18:56:46.565Z,66.60
2023-04-29T18:59:19.437Z,67.30
2023-04-29T19:01:48.222Z,67.09
2023-04-29T19:04:15.738Z,66.58
2023-04-29T19:06:43.084Z,66.46
2023-04-29T19:09:10.628Z,66.74
2023-04-29T19:11:37.358Z,66.01
2023-04-29T19:14:04.480Z,66.28
2023-04-29T19:16:31.216Z,66.74
2023-04-29T19:18:57.994Z,67.10
2023-04-29T19:21:24.784Z,66.87
2023-04-29T19:23:51.544Z,66.85
2023-04-29T19:26:18.315Z,67.30
2023-04-29T19:28:45.026Z,66.90
2023-04-29T19:31:11.982Z,67.39
2023-04-29T19:33:38.782Z,67.96
2023-04-29T19:36:05.651Z,68.04
2023-04-29T19:38:32.483Z,67.89
2023-04-29T19:40:59.212Z,68.40
2023-04-29T19:43:26.010Z,68.32
2023-04-29T19:45:52.926Z,69.11
2023-04-29T19:48:19.780Z,68.79
2023-04-29T19:50:46.456Z,69.10
2023-04-29T19:53:13.929Z,69.37
2023-04-29T19:55:40.874Z,69.35
2023-04-29T19:58:07.785Z,69.25
2023-04-29T20:00:34.699Z,69.41
2023-04-29T20:03:01.670Z,69.26
2023-04-29T20:05:29.089Z,68.46
2023-04-29T20:07:56.219Z,69.21
2023-04-29T20:10:23.270Z,69.09
2023-04-29T20:12:49.998Z,68.88
2023-04-29T20:15:16.925Z,68.93
2023-04-29T20:17:43.864Z,67.87
2023-04-29T20:20:10.969Z,68.39
2023-04-29T20:22:38.666Z,67.86
2023-04-29T20:25:05.898Z,68.07
2023-04-29T20:27:32.579Z,67.56
2023-04-29T20:29:59.606Z,67.79
2023-04-29T20:32:27.114Z,67.98
2023-04-29T20:34:54.503Z,68.15
2023-04-29T20:37:21.338Z,68.30
2023-04-29T20:39:48.187Z,68.64
2023-04-29T20:42:15.042Z,68.41
2023-04-29T20:44:41.810Z,67.93
2023-04-29T20:47:08.800Z,68.17
2023-04-29T20:49:35.656Z,68.94
2023-04-29T20:52:02.340Z,68.77
2023-04-29T20:54:29.090Z,68.51
2023-04-29T20:56:55.889Z,68.84
2023-04-29T20:59:22.597Z,68.85
2023-04-29T21:01:49.830Z,69.43
2023-04-29T21:04:17.082Z,69.02
2023-04-29T21:06:43.838Z,68.76
2023-04-29T21:09:11.295Z,68.41
2023-04-29T21:11:38.132Z,69.01
2023-04-29T21:14:05.342Z,68.99
2023-04-29T21:16:32.042Z,68.83
2023-04-29T21:18:58.732Z,68.80
2023-04-29T21:21:26.294Z,68.79
2023-04-29T21:23:53.180Z,69.01
2023-04-29T21:26:19.900Z,69.35
2023-04-29T21:28:47.455Z,69.56
2023-04-29T21:31:16.593Z,69.47
2023-04-29T21:33:44.168Z,68.99
2023-04-29T21:36:11.269Z,69.10
2023-04-29T21:38:38.028Z,69.38
2023-04-29T21:41:27.642Z,69.71
2023-04-29T21:44:01.200Z,69.65
2023-04-29T21:46:28.921Z,69.68
2023-04-29T21:48:58.038Z,69.44
2023-04-29T21:51:25.014Z,69.45
2023-04-29T21:53:51.819Z,69.34
2023-04-29T21:56:19.543Z,69.18
2023-04-29T21:58:46.405Z,69.45
2023-04-29T22:01:36.318Z,69.38
2023-04-29T22:04:03.647Z,69.43
2023-04-29T22:06:31.468Z,69.07
2023-04-29T22:08:58.284Z,69.54
2023-04-29T22:11:25.667Z,70.44
2023-04-29T22:13:52.549Z,69.46
2023-04-29T22:16:19.432Z,69.67
2023-04-29T22:18:46.471Z,69.77
2023-04-29T22:21:13.243Z,69.29
2023-04-29T22:23:40.017Z,69.62
2023-04-29T22:26:06.743Z,69.63
2023-04-29T22:28:34.389Z,69.80
2023-04-29T22:31:01.092Z,69.88
2023-04-29T22:33:27.829Z,69.21
2023-04-29T22:35:54.539Z,68.91
2023-04-29T22:38:21.277Z,68.78
2023-04-29T22:40:51.979Z,68.98
2023-04-29T22:43:18.747Z,68.72
2023-04-29T22:45:55.305Z,67.83
2023-04-29T22:48:25.081Z,69.02
2023-04-29T22:50:57.593Z,69.18
2023-04-29T22:53:25.483Z,68.43
2023-04-29T22:55:53.838Z,68.01
2023-04-29T22:58:21.113Z,69.01
2023-04-29T23:00:52.137Z,68.45
2023-04-29T23:03:18.975Z,68.60
2023-04-29T23:05:46.429Z,68.42
2023-04-29T23:08:13.152Z,68.38
2023-04-29T23:10:39.840Z,68.37
2023-04-29T23:13:06.630Z,67.70
2023-04-29T23:15:33.419Z,68.55
2023-04-29T23:18:00.319Z,67.62
2023-04-29T23:20:27.059Z,67.69
2023-04-29T23:22:53.766Z,67.72
2023-04-29T23:25:20.506Z,68.50
2023-04-29T23:27:47.257Z,68.40
2023-04-29T23:30:14.040Z,68.29
2023-04-29T23:32:40.935Z,68.58
2023-04-29T23:35:08.223Z,67.98
2023-04-29T23:37:34.956Z,68.40
2023-04-29T23:40:02.134Z,68.62
2023-04-29T23:42:28.891Z,68.04
2023-04-29T23:44:55.553Z,67.56
2023-04-29T23:47:22.358Z,67.38
2023-04-29T23:49:49.091Z,68.35
2023-04-29T23:52:15.812Z,68.60
2023-04-29T23:54:42.538Z,68.11
2023-04-29T23:57:09.335Z,68.73
2023-04-29T23:59:36.167Z,69.03
